createdAt,value
2022-12-20T00:00:02.080Z,3.10
2022-12-20T00:02:28.716Z,3.03
2022-12-20T00:04:55.284Z,3.11
2022-12-20T00:07:21.822Z,3.13
2022-12-20T00:09:48.371Z,3.09
2022-12-20T00:12:14.962Z,3.03
2022-12-20T00:14:41.884Z,3.03
2022-12-20T00:17:08.521Z,3.14
2022-12-20T00:19:35.056Z,3.12
2022-12-20T00:22:01.632Z,3.18
2022-12-20T00:24:28.244Z,3.23
2022-12-20T00:26:54.798Z,3.24
2022-12-20T00:29:21.336Z,3.15
2022-12-20T00:31:47.957Z,3.09
2022-12-20T00:34:14.569Z,3.09
2022-12-20T00:36:41.294Z,3.15
2022-12-20T00:39:07.974Z,3.11
2022-12-20T00:41:34.823Z,3.08
2022-12-20T00:44:02.882Z,3.01
2022-12-20T00:46:31.677Z,3.19
2022-12-20T00:48:58.442Z,3.04
2022-12-20T00:51:28.055Z,3.17
2022-12-20T00:53:56.222Z,3.07
2022-12-20T00:56:23.135Z,3.08
2022-12-20T00:58:50.171Z,3.04
2022-12-20T01:01:21.677Z,3.05
2022-12-20T01:03:49.747Z,2.88
2022-12-20T01:06:16.745Z,2.95
2022-12-20T01:08:43.903Z,3.04
2022-12-20T01:11:18.143Z,3.04
2022-12-20T01:13:47.957Z,2.99
2022-12-20T01:16:30.928Z,2.89
2022-12-20T01:18:57.593Z,2.81
2022-12-20T01:21:27.262Z,2.80
2022-12-20T01:23:55.182Z,2.76
2022-12-20T01:26:25.455Z,2.75
2022-12-20T01:28:55.079Z,2.79
2022-12-20T01:31:22.567Z,2.67
2022-12-20T01:33:50.385Z,2.82
2022-12-20T01:36:20.109Z,2.75
2022-12-20T01:38:47.440Z,2.73
2022-12-20T01:41:18.457Z,2.82
2022-12-20T01:43:45.759Z,2.86
2022-12-20T01:46:12.356Z,2.80
2022-12-20T01:48:39.721Z,2.67
2022-12-20T01:51:06.399Z,2.71
2022-12-20T01:53:33.046Z,2.66
2022-12-20T01:56:03.949Z,2.68
2022-12-20T01:58:30.902Z,2.67
2022-12-20T02:00:57.492Z,2.68
2022-12-20T02:03:25.072Z,2.67
2022-12-20T02:05:51.659Z,2.79
2022-12-20T02:08:19.693Z,2.71
2022-12-20T02:11:01.170Z,2.72
2022-12-20T02:13:42.262Z,2.58
2022-12-20T02:16:10.040Z,2.67
2022-12-20T02:18:46.024Z,2.64
2022-12-20T02:21:36.056Z,2.64
2022-12-20T02:24:24.052Z,2.47
2022-12-20T02:27:21.769Z,2.49
2022-12-20T02:29:57.249Z,2.50
2022-12-20T02:32:35.920Z,2.52
2022-12-20T02:35:04.563Z,2.45
2022-12-20T02:37:31.465Z,2.42
2022-12-20T02:39:58.937Z,2.46
2022-12-20T02:42:28.172Z,2.38
2022-12-20T02:45:18.187Z,2.45
2022-12-20T02:47:59.643Z,2.40
2022-12-20T02:50:35.886Z,2.35
2022-12-20T02:53:03.124Z,2.29
2022-12-20T02:55:46.584Z,2.28
2022-12-20T02:58:40.292Z,2.28
2022-12-20T03:01:12.082Z,2.29
2022-12-20T03:03:38.770Z,2.26
2022-12-20T03:06:05.864Z,2.19
2022-12-20T03:08:32.443Z,2.17
2022-12-20T03:10:59.080Z,2.11
2022-12-20T03:13:25.970Z,1.97
2022-12-20T03:15:52.680Z,1.96
2022-12-20T03:18:19.258Z,1.95
2022-12-20T03:20:45.763Z,1.92
2022-12-20T03:23:12.463Z,1.90
2022-12-20T03:25:39.041Z,1.79
2022-12-20T03:28:05.642Z,1.80
2022-12-20T03:30:32.382Z,1.73
2022-12-20T03:32:58.954Z,1.68
2022-12-20T03:35:25.552Z,1.70
2022-12-20T03:37:52.171Z,1.62
2022-12-20T03:40:18.764Z,1.57
2022-12-20T03:42:45.293Z,1.52
2022-12-20T03:45:11.900Z,1.53
2022-12-20T03:47:38.453Z,1.50
2022-12-20T03:50:06.651Z,1.44
2022-12-20T03:52:33.621Z,1.46
2022-12-20T03:55:00.823Z,1.42
2022-12-20T03:57:27.239Z,1.39
2022-12-20T03:59:54.350Z,1.36
2022-12-20T04:02:22.748Z,1.22
2022-12-20T04:04:49.482Z,1.31
2022-12-20T04:07:16.101Z,1.29
2022-12-20T04:09:42.630Z,1.26
2022-12-20T04:12:09.145Z,1.20
2022-12-20T04:14:36.348Z,1.22
2022-12-20T04:17:03.340Z,1.22
2022-12-20T04:19:29.935Z,1.22
2022-12-20T04:22:04.613Z,1.17
2022-12-20T04:24:32.438Z,0.98
2022-12-20T04:26:59.024Z,1.12
2022-12-20T04:29:25.599Z,1.10
2022-12-20T04:31:52.311Z,1.05
2022-12-20T04:34:18.902Z,1.06
2022-12-20T04:36:45.491Z,0.96
2022-12-20T04:39:12.095Z,1.00
2022-12-20T04:41:38.751Z,0.98
2022-12-20T04:44:05.345Z,0.80
2022-12-20T04:46:32.066Z,0.92
2022-12-20T04:48:59.744Z,0.81
2022-12-20T04:51:27.895Z,0.83
2022-12-20T04:53:55.050Z,0.79
2022-12-20T04:56:28.289Z,0.72
2022-12-20T04:58:56.986Z,0.69
2022-12-20T05:01:24.108Z,0.74
2022-12-20T05:03:51.460Z,0.71
2022-12-20T05:06:18.345Z,0.63
2022-12-20T05:08:45.237Z,0.66
2022-12-20T05:11:11.832Z,0.71
2022-12-20T05:13:38.498Z,0.53
2022-12-20T05:16:05.444Z,0.56
2022-12-20T05:18:32.580Z,0.51
2022-12-20T05:21:19.001Z,0.46
2022-12-20T05:24:04.536Z,0.45
2022-12-20T05:26:34.022Z,0.46
2022-12-20T05:29:00.526Z,0.47
2022-12-20T05:31:27.194Z,0.43
2022-12-20T05:33:54.331Z,0.40
2022-12-20T05:36:21.009Z,0.36
2022-12-20T05:38:47.744Z,0.27
2022-12-20T05:41:14.284Z,0.29
2022-12-20T05:43:40.845Z,0.28
2022-12-20T05:46:07.994Z,0.32
2022-12-20T05:48:34.461Z,0.26
2022-12-20T05:51:01.346Z,0.10
2022-12-20T05:53:28.122Z,0.13
2022-12-20T05:55:55.325Z,0.21
2022-12-20T05:58:21.761Z,0.20
2022-12-20T06:00:48.956Z,0.17
2022-12-20T06:03:15.798Z,0.14
2022-12-20T06:05:43.727Z,0.05
2022-12-20T06:08:11.535Z,0.05
2022-12-20T06:10:40.327Z,-0.03
2022-12-20T06:13:07.854Z,-0.08
2022-12-20T06:15:34.628Z,-0.03
2022-12-20T06:18:01.420Z,0.02
2022-12-20T06:20:28.666Z,0.05
2022-12-20T06:22:55.138Z,0.12
2022-12-20T06:25:21.736Z,0.17
2022-12-20T06:27:48.456Z,0.24
2022-12-20T06:30:15.199Z,0.25
2022-12-20T06:32:41.826Z,0.32
2022-12-20T06:35:08.930Z,0.41
2022-12-20T06:37:36.421Z,0.30
2022-12-20T06:40:04.552Z,0.42
2022-12-20T06:42:32.623Z,0.30
2022-12-20T06:44:59.301Z,0.57
2022-12-20T06:47:25.866Z,0.52
2022-12-20T06:49:52.393Z,0.46
2022-12-20T06:52:19.044Z,0.39
2022-12-20T06:54:45.777Z,0.57
2022-12-20T06:57:12.459Z,0.70
2022-12-20T06:59:39.025Z,0.83
2022-12-20T07:02:08.083Z,0.89
2022-12-20T07:04:35.570Z,0.90
2022-12-20T07:07:02.120Z,0.94
2022-12-20T07:09:28.646Z,1.03
2022-12-20T07:11:55.302Z,1.00
2022-12-20T07:14:21.846Z,1.11
2022-12-20T07:16:48.683Z,1.21
2022-12-20T07:19:15.693Z,1.19
2022-12-20T07:21:43.052Z,1.29
2022-12-20T07:24:10.755Z,1.40
2022-12-20T07:26:37.407Z,1.50
2022-12-20T07:29:04.176Z,1.57
2022-12-20T07:31:30.950Z,1.66
2022-12-20T07:33:57.584Z,1.73
2022-12-20T07:36:24.140Z,1.76
2022-12-20T07:38:51.308Z,1.80
2022-12-20T07:41:19.411Z,1.87
2022-12-20T07:43:46.030Z,1.86
2022-12-20T07:46:16.572Z,1.94
2022-12-20T07:48:44.739Z,2.02
2022-12-20T07:51:26.782Z,2.01
2022-12-20T07:54:05.105Z,2.02
2022-12-20T07:56:40.917Z,2.20
2022-12-20T07:59:12.352Z,2.29
2022-12-20T08:01:41.178Z,2.26
2022-12-20T08:04:12.945Z,2.37
2022-12-20T08:06:42.011Z,2.42
2022-12-20T08:09:12.867Z,2.38
2022-12-20T08:11:41.316Z,2.44
2022-12-20T08:14:08.392Z,2.58
2022-12-20T08:16:35.039Z,2.79
2022-12-20T08:19:01.654Z,2.75
2022-12-20T08:21:29.089Z,2.69
2022-12-20T08:23:56.661Z,2.66
2022-12-20T08:26:23.570Z,2.54
2022-12-20T08:28:50.155Z,2.72
2022-12-20T08:31:16.785Z,2.78
2022-12-20T08:33:43.447Z,2.80
2022-12-20T08:36:12.790Z,2.85
2022-12-20T08:38:40.547Z,2.80
2022-12-20T08:41:12.762Z,2.93
2022-12-20T08:43:40.246Z,2.98
2022-12-20T08:46:07.891Z,3.03
2022-12-20T08:48:34.667Z,3.05
2022-12-20T08:51:03.814Z,3.17
2022-12-20T08:53:31.052Z,3.24
2022-12-20T08:56:15.215Z,3.32
2022-12-20T08:58:43.277Z,3.86
2022-12-20T09:01:13.702Z,6.24
2022-12-20T09:03:41.064Z,9.01
2022-12-20T09:06:08.926Z,11.23
2022-12-20T09:08:36.971Z,13.07
2022-12-20T09:11:14.882Z,13.96
2022-12-20T09:13:44.853Z,14.27
2022-12-20T09:16:14.545Z,13.93
2022-12-20T09:18:41.536Z,13.28
2022-12-20T09:21:09.467Z,12.41
2022-12-20T09:23:37.593Z,10.96
2022-12-20T09:26:11.830Z,9.87
2022-12-20T09:28:38.504Z,8.79
2022-12-20T09:31:07.080Z,7.89
2022-12-20T09:33:34.954Z,7.32
2022-12-20T09:36:02.681Z,7.23
2022-12-20T09:38:31.219Z,6.81
2022-12-20T09:41:06.724Z,6.63
2022-12-20T09:43:34.466Z,6.73
2022-12-20T09:46:04.176Z,6.49
2022-12-20T09:48:40.515Z,6.19
2022-12-20T09:51:25.776Z,5.97
2022-12-20T09:54:31.955Z,6.06
2022-12-20T09:57:11.907Z,6.02
2022-12-20T09:59:47.503Z,6.03
2022-12-20T10:05:16.973Z,5.75
2022-12-20T10:08:01.446Z,5.95
2022-12-20T10:10:33.799Z,6.04
2022-12-20T10:13:07.830Z,6.20
2022-12-20T10:16:09.597Z,6.30
2022-12-20T10:19:08.699Z,6.39
2022-12-20T10:21:38.118Z,6.28
2022-12-20T10:24:13.748Z,6.22
2022-12-20T10:26:40.342Z,6.08
2022-12-20T10:29:06.930Z,5.82
2022-12-20T10:31:34.799Z,6.11
2022-12-20T10:34:01.541Z,6.16
2022-12-20T10:36:33.707Z,6.38
2022-12-20T10:39:10.323Z,6.43
2022-12-20T10:41:40.034Z,6.50
2022-12-20T10:44:19.954Z,6.61
2022-12-20T10:46:51.238Z,6.62
2022-12-20T10:49:34.748Z,6.67
2022-12-20T10:52:03.820Z,6.80
2022-12-20T10:54:41.823Z,7.01
2022-12-20T10:57:29.865Z,6.98
2022-12-20T11:00:06.535Z,7.19
2022-12-20T11:02:40.545Z,7.31
2022-12-20T11:05:11.059Z,7.39
2022-12-20T11:08:24.709Z,7.29
2022-12-20T11:10:39.462Z,7.47
2022-12-20T11:13:06.728Z,7.29
2022-12-20T11:15:35.166Z,7.37
2022-12-20T11:18:30.275Z,7.09
2022-12-20T11:21:00.940Z,6.91
2022-12-20T11:23:41.936Z,6.88
2022-12-20T11:26:11.164Z,7.11
2022-12-20T11:28:54.678Z,7.25
2022-12-20T11:31:41.451Z,7.29
2022-12-20T11:34:17.487Z,7.04
2022-12-20T11:36:50.072Z,7.41
2022-12-20T11:39:34.900Z,7.76
2022-12-20T11:42:20.024Z,7.80
2022-12-20T11:45:03.277Z,7.83
2022-12-20T11:47:55.927Z,7.89
2022-12-20T11:50:44.451Z,8.10
2022-12-20T11:53:21.099Z,7.80
2022-12-20T11:55:52.199Z,7.59
2022-12-20T11:58:26.549Z,7.75
2022-12-20T12:01:07.183Z,8.14
2022-12-20T12:03:37.102Z,8.42
2022-12-20T12:06:25.929Z,8.60
2022-12-20T12:09:16.966Z,8.52
2022-12-20T12:12:08.282Z,8.40
2022-12-20T12:15:16.520Z,8.26
2022-12-20T12:17:52.511Z,8.04
2022-12-20T12:20:55.764Z,8.17
2022-12-20T12:23:32.005Z,8.12
2022-12-20T12:26:07.336Z,8.31
2022-12-20T12:28:34.530Z,8.49
2022-12-20T12:31:07.808Z,8.60
2022-12-20T12:33:56.039Z,8.83
2022-12-20T12:36:53.462Z,8.75
2022-12-20T12:39:19.927Z,8.47
2022-12-20T12:42:16.113Z,8.47
2022-12-20T12:44:55.427Z,8.52
2022-12-20T12:47:49.421Z,8.62
2022-12-20T12:50:26.278Z,8.72
2022-12-20T12:52:55.888Z,8.72
2022-12-20T12:56:12.907Z,8.35
2022-12-20T12:58:48.410Z,8.28
2022-12-20T13:01:47.647Z,8.04
2022-12-20T13:04:20.477Z,8.34
2022-12-20T13:06:47.304Z,8.43
2022-12-20T13:09:25.281Z,8.37
2022-12-20T13:12:02.125Z,8.35
2022-12-20T13:14:29.890Z,8.41
2022-12-20T13:17:24.149Z,8.25
2022-12-20T13:19:54.918Z,8.23
2022-12-20T13:22:23.893Z,8.30
2022-12-20T13:24:57.434Z,8.20
2022-12-20T13:27:28.591Z,8.28
2022-12-20T13:30:07.191Z,8.25
2022-12-20T13:32:49.087Z,8.32
2022-12-20T13:35:24.929Z,8.25
2022-12-20T13:38:05.993Z,8.25
2022-12-20T13:40:45.580Z,8.28
2022-12-20T13:43:21.939Z,8.23
2022-12-20T13:46:08.745Z,8.14
2022-12-20T13:48:38.056Z,8.04
2022-12-20T13:51:07.914Z,7.88
2022-12-20T13:53:34.980Z,7.59
2022-12-20T13:56:26.722Z,7.46
2022-12-20T13:58:58.440Z,7.19
2022-12-20T14:01:26.745Z,6.89
2022-12-20T14:03:53.707Z,6.79
2022-12-20T14:06:26.790Z,6.59
2022-12-20T14:08:54.680Z,6.48
2022-12-20T14:11:22.827Z,6.32
2022-12-20T14:13:56.260Z,6.24
2022-12-20T14:16:25.851Z,6.10
2022-12-20T14:18:58.176Z,5.95
2022-12-20T14:21:26.080Z,5.78
2022-12-20T14:23:56.715Z,5.75
2022-12-20T14:26:30.040Z,5.70
2022-12-20T14:28:58.635Z,5.64
2022-12-20T14:31:43.128Z,5.55
2022-12-20T14:34:12.145Z,5.41
2022-12-20T14:36:41.033Z,5.24
2022-12-20T14:39:31.948Z,5.10
2022-12-20T14:42:00.093Z,5.03
2022-12-20T14:44:31.268Z,4.99
2022-12-20T14:47:01.178Z,4.89
2022-12-20T14:49:37.380Z,4.84
2022-12-20T14:52:14.469Z,4.62
2022-12-20T14:57:35.062Z,4.50
2022-12-20T15:00:13.638Z,4.56
2022-12-20T15:03:00.591Z,4.56
2022-12-20T15:05:36.922Z,4.54
2022-12-20T15:08:13.801Z,4.45
2022-12-20T15:10:57.742Z,4.46
2022-12-20T15:13:39.401Z,4.38
2022-12-20T15:16:14.922Z,4.27
2022-12-20T15:18:41.641Z,4.28
2022-12-20T15:21:33.568Z,4.19
2022-12-20T15:24:02.379Z,4.13
2022-12-20T15:26:31.013Z,3.97
2022-12-20T15:28:58.852Z,3.91
2022-12-20T15:31:33.071Z,3.90
2022-12-20T15:34:02.587Z,3.63
2022-12-20T15:36:30.485Z,3.45
2022-12-20T15:39:14.709Z,3.10
2022-12-20T15:41:45.150Z,3.01
2022-12-20T15:44:16.105Z,2.83
2022-12-20T15:46:43.926Z,2.81
2022-12-20T15:49:22.031Z,2.88
2022-12-20T15:51:50.501Z,2.80
2022-12-20T15:54:32.756Z,2.69
2022-12-20T15:57:07.359Z,2.65
2022-12-20T16:00:04.064Z,2.54
2022-12-20T16:02:25.524Z,2.54
2022-12-20T16:04:53.285Z,2.42
2022-12-20T16:07:19.939Z,2.29
2022-12-20T16:09:46.714Z,2.29
2022-12-20T16:12:21.342Z,2.34
2022-12-20T16:14:48.193Z,2.43
2022-12-20T16:17:15.629Z,2.52
2022-12-20T16:19:42.906Z,2.64
2022-12-20T16:22:19.402Z,2.61
2022-12-20T16:24:46.487Z,2.58
2022-12-20T16:27:13.123Z,2.50
2022-12-20T16:29:41.601Z,2.36
2022-12-20T16:32:15.939Z,2.22
2022-12-20T16:34:43.265Z,2.06
2022-12-20T16:37:11.411Z,2.09
2022-12-20T16:39:37.939Z,2.06
2022-12-20T16:42:12.359Z,2.02
2022-12-20T16:44:42.726Z,2.08
2022-12-20T16:47:10.164Z,2.17
2022-12-20T16:49:37.481Z,2.19
2022-12-20T16:52:06.725Z,2.22
2022-12-20T16:54:33.585Z,2.30
2022-12-20T16:57:00.655Z,2.35
2022-12-20T16:59:27.377Z,2.26
2022-12-20T17:01:56.731Z,2.36
2022-12-20T17:04:24.531Z,2.46
2022-12-20T17:06:51.270Z,2.42
2022-12-20T17:12:04.518Z,2.20
2022-12-20T17:14:31.110Z,2.05
2022-12-20T17:16:57.790Z,2.02
2022-12-20T17:19:24.446Z,2.00
2022-12-20T17:24:35.276Z,1.86
2022-12-20T17:27:01.893Z,1.79
2022-12-20T17:29:28.426Z,1.76
2022-12-20T17:31:55.136Z,1.66
2022-12-20T17:34:27.975Z,1.66
2022-12-20T17:36:57.603Z,1.60
2022-12-20T17:39:25.845Z,1.55
2022-12-20T17:41:54.860Z,1.47
2022-12-20T17:44:28.251Z,1.50
2022-12-20T17:46:56.519Z,1.43
2022-12-20T17:49:24.507Z,1.42
2022-12-20T17:51:51.851Z,1.41
2022-12-20T17:54:23.967Z,1.30
2022-12-20T17:56:51.154Z,1.40
2022-12-20T17:59:18.335Z,1.44
2022-12-20T18:01:46.228Z,1.34
2022-12-20T18:04:15.104Z,1.37
2022-12-20T18:06:44.812Z,1.37
2022-12-20T18:09:21.483Z,1.31
2022-12-20T18:11:48.680Z,1.24
2022-12-20T18:14:15.543Z,1.10
2022-12-20T18:16:42.245Z,1.07
2022-12-20T18:19:16.101Z,1.05
2022-12-20T18:21:42.830Z,1.11
2022-12-20T18:24:16.272Z,1.14
2022-12-20T18:26:43.675Z,1.12
2022-12-20T18:29:10.903Z,1.09
2022-12-20T18:31:37.437Z,0.94
2022-12-20T18:34:04.702Z,0.95
2022-12-20T18:36:36.937Z,0.98
2022-12-20T18:39:06.673Z,0.86
2022-12-20T18:41:37.865Z,0.73
2022-12-20T18:44:06.789Z,0.69
2022-12-20T18:46:34.092Z,0.73
2022-12-20T18:49:01.408Z,0.73
2022-12-20T18:51:29.459Z,0.75
2022-12-20T18:53:58.424Z,0.71
2022-12-20T18:56:29.457Z,0.73
2022-12-20T18:58:57.857Z,0.68
2022-12-20T19:01:27.978Z,0.68
2022-12-20T19:03:55.535Z,0.66
2022-12-20T19:06:23.766Z,0.64
2022-12-20T19:08:51.158Z,0.68
2022-12-20T19:11:21.307Z,0.68
2022-12-20T19:13:48.405Z,0.70
2022-12-20T19:16:18.522Z,0.71
2022-12-20T19:18:45.762Z,0.68
2022-12-20T19:21:18.531Z,0.63
2022-12-20T19:23:47.819Z,0.62
2022-12-20T19:26:15.448Z,0.68
2022-12-20T19:28:43.370Z,0.72
2022-12-20T19:31:20.962Z,0.65
2022-12-20T19:33:48.764Z,0.64
2022-12-20T19:36:18.980Z,0.47
2022-12-20T19:38:47.633Z,0.45
2022-12-20T19:41:14.847Z,0.29
2022-12-20T19:43:41.955Z,0.40
2022-12-20T19:46:09.735Z,0.28
2022-12-20T19:48:37.352Z,0.14
2022-12-20T19:51:06.770Z,0.24
2022-12-20T19:53:33.339Z,0.01
2022-12-20T19:55:59.894Z,-0.04
2022-12-20T19:58:26.456Z,-0.01
2022-12-20T20:00:53.211Z,0.04
2022-12-20T20:03:20.089Z,-0.05
2022-12-20T20:05:47.006Z,-0.06
2022-12-20T20:08:13.897Z,0.00
2022-12-20T20:10:40.462Z,0.02
2022-12-20T20:13:07.375Z,0.00
2022-12-20T20:15:34.001Z,-0.01
2022-12-20T20:18:00.955Z,0.02
2022-12-20T20:20:27.643Z,-0.01
2022-12-20T20:22:54.270Z,-0.05
2022-12-20T20:25:20.938Z,-0.03
2022-12-20T20:27:47.553Z,-0.08
2022-12-20T20:30:14.699Z,-0.07
2022-12-20T20:32:42.156Z,0.05
2022-12-20T20:35:11.017Z,0.02
2022-12-20T20:37:37.788Z,0.02
2022-12-20T20:40:04.947Z,0.00
2022-12-20T20:42:31.510Z,-0.02
2022-12-20T20:44:58.032Z,-0.01
2022-12-20T20:47:24.681Z,0.04
2022-12-20T20:49:52.916Z,0.05
2022-12-20T20:52:19.934Z,0.08
2022-12-20T20:54:46.538Z,0.00
2022-12-20T20:57:13.389Z,-0.08
2022-12-20T20:59:40.203Z,-0.10
2022-12-20T21:02:07.259Z,-0.18
2022-12-20T21:04:33.962Z,-0.37
2022-12-20T21:07:00.530Z,-0.26
2022-12-20T21:09:27.128Z,-0.34
2022-12-20T21:11:53.794Z,-0.37
2022-12-20T21:14:43.395Z,-0.45
2022-12-20T21:17:07.309Z,-0.49
2022-12-20T21:19:34.022Z,-0.42
2022-12-20T21:22:00.532Z,-0.51
2022-12-20T21:24:27.111Z,-0.52
2022-12-20T21:26:55.210Z,-0.51
2022-12-20T21:29:22.092Z,-0.53
2022-12-20T21:31:48.856Z,-0.57
2022-12-20T21:34:15.491Z,-0.66
2022-12-20T21:36:42.663Z,-0.63
2022-12-20T21:39:11.805Z,-0.58
2022-12-20T21:41:38.447Z,-0.57
2022-12-20T21:44:05.399Z,-0.60
2022-12-20T21:46:32.554Z,-0.63
2022-12-20T21:48:59.477Z,-0.66
2022-12-20T21:51:27.157Z,-0.70
2022-12-20T21:53:56.402Z,-0.70
2022-12-20T21:56:24.193Z,-0.72
2022-12-20T21:58:51.220Z,-0.77
2022-12-20T22:01:22.560Z,-0.73
2022-12-20T22:03:58.340Z,-0.91
2022-12-20T22:06:25.819Z,-0.88
2022-12-20T22:08:52.390Z,-0.91
2022-12-20T22:11:19.144Z,-1.00
2022-12-20T22:13:46.404Z,-1.05
2022-12-20T22:16:13.000Z,-1.07
2022-12-20T22:18:40.697Z,-1.11
2022-12-20T22:21:09.410Z,-1.20
2022-12-20T22:23:37.601Z,-1.25
2022-12-20T22:26:05.779Z,-1.26
2022-12-20T22:28:32.431Z,-1.32
2022-12-20T22:30:59.030Z,-1.28
2022-12-20T22:33:25.577Z,-1.21
2022-12-20T22:35:52.204Z,-1.14
2022-12-20T22:38:18.780Z,-1.05
2022-12-20T22:40:45.358Z,-1.03
2022-12-20T22:43:11.883Z,-1.03
2022-12-20T22:45:38.442Z,-0.95
2022-12-20T22:48:05.140Z,-0.94
2022-12-20T22:50:31.809Z,-0.91
2022-12-20T22:52:58.744Z,-0.91
2022-12-20T22:55:25.473Z,-0.95
2022-12-20T22:57:51.966Z,-0.94
2022-12-20T23:00:18.813Z,-1.01
2022-12-20T23:02:45.509Z,-1.01
2022-12-20T23:05:12.443Z,-1.17
2022-12-20T23:07:38.972Z,-1.06
2022-12-20T23:10:25.942Z,-1.19
2022-12-20T23:13:11.118Z,-1.32
2022-12-20T23:15:40.461Z,-1.36
2022-12-20T23:18:07.031Z,-1.36
2022-12-20T23:20:52.465Z,-1.41
2022-12-20T23:23:19.034Z,-1.48
2022-12-20T23:25:45.556Z,-1.53
2022-12-20T23:28:12.073Z,-1.56
2022-12-20T23:30:38.647Z,-1.45
2022-12-20T23:33:05.262Z,-1.38
2022-12-20T23:35:31.830Z,-1.33
2022-12-20T23:37:59.189Z,-1.33
2022-12-20T23:40:25.811Z,-1.29
2022-12-20T23:42:54.638Z,-1.34
2022-12-20T23:45:21.356Z,-1.31
2022-12-20T23:47:47.867Z,-1.31
2022-12-20T23:50:14.404Z,-1.28
2022-12-20T23:52:41.021Z,-1.30
2022-12-20T23:55:07.915Z,-1.20
2022-12-20T23:57:34.485Z,-1.21
